RoSS Sea — WDE3122 — position and weather

sailwx.info

Track history (hours):
 
Tides and Currents Weather Stations Pressure Air Temp Water Temp Dewpoint Dewpoint Depression Visibility Wind Speed Wind Dir Waves Ship Positions

RoSS Sea

Owner: Kirby Inland Marine, LP, Houston, TX. More information available from US FCC via Universal Licensing System and Coast Guard Vessel Documentation Center.

Last reported at 2015-Mar-27 15:33 UTC. Time now 2015-Mar-27 15:41 UTC.
Position N 40°38' W 074°10'.

Length 30 m; draft 5 m.

Type: Tow > 200 m length. MMSI: 367334360.

Date/timePositionNaut miles runAvg speedWind from/ knotsBaromVisibWave heightAir tempDewpointWater temp
2015-Mar-27 15:33N 40°38' W 074°10'0 0.0
2015-Mar-27 14:33N 40°38' W 074°10'3 1.3
2015-Mar-27 12:23N 40°36' W 074°12'3 3.5
2015-Mar-27 11:32N 40°38' W 074°10'0 0.0
2015-Mar-27 10:30N 40°38' W 074°10'0 0.0
2015-Mar-27 09:33N 40°38' W 074°10'0 0.0
2015-Mar-27 08:33N 40°38' W 074°10'0 0.0
2015-Mar-27 07:33N 40°38' W 074°10'0 0.0
2015-Mar-27 06:33N 40°38' W 074°10'0 0.0
2015-Mar-27 05:20N 40°38' W 074°10'0 0.0
2015-Mar-27 04:33N 40°38' W 074°10'1 0.6
2015-Mar-27 03:33N 40°38' W 074°09'1 0.9
2015-Mar-27 02:32N 40°39' W 074°08'2 1.6
2015-Mar-27 01:31N 40°38' W 074°10'2 1.7
2015-Mar-27 00:31N 40°39' W 074°08'1 1.2
2015-Mar-26 23:32N 40°39' W 074°09'1 0.5
2015-Mar-26 22:33N 40°39' W 074°10'1 0.9
2015-Mar-26 21:29N 40°39' W 074°11'10 3.2
2015-Mar-26 18:27N 40°29' W 074°14'3 3.1
2015-Mar-26 17:27N 40°32' W 074°15'0 0.0
2015-Mar-26 16:28N 40°32' W 074°15'0 0.0
2015-Mar-26 14:25N 40°32' W 074°15'0 0.0
2015-Mar-26 11:14N 40°32' W 074°15'0 0.7
2015-Mar-26 10:30N 40°33' W 074°15'2 2.0
2015-Mar-26 09:25N 40°34' W 074°13'5 2.5
2015-Mar-26 07:27N 40°38' W 074°10'0 0.0
2015-Mar-26 06:33N 40°38' W 074°10'0 0.0
2015-Mar-26 05:29N 40°38' W 074°10'0 0.0
2015-Mar-26 04:33N 40°38' W 074°10'0 0.0
2015-Mar-26 03:29N 40°38' W 074°10'0 0.0
2015-Mar-26 02:33N 40°38' W 074°10'0 0.0
2015-Mar-26 01:33N 40°38' W 074°10'0 0.0
2015-Mar-26 00:34N 40°38' W 074°10'0 0.0
2015-Mar-25 23:33N 40°38' W 074°10'0 0.0
2015-Mar-25 22:34N 40°38' W 074°10'0 0.0
2015-Mar-25 21:33N 40°38' W 074°10'0 0.0
2015-Mar-25 20:33N 40°38' W 074°10'0 0.0
2015-Mar-25 19:33N 40°38' W 074°10'0 0.0
2015-Mar-25 18:33N 40°38' W 074°10'0 0.0
2015-Mar-25 17:23N 40°38' W 074°10'0 0.0
2015-Mar-25 15:33N 40°38' W 074°10'0 0.0
2015-Mar-25 14:33N 40°38' W 074°10'0 0.0
2015-Mar-25 13:32N 40°38' W 074°10'7 0.9
2015-Mar-25 05:12N 40°32' W 074°15'1 0.8
2015-Mar-25 03:24N 40°33' W 074°14'6 7.0
2015-Mar-25 02:33N 40°39' W 074°10'1 0.3
2015-Mar-24 22:33N 40°39' W 074°08'2 2.5
2015-Mar-24 21:33N 40°39' W 074°05'0 0.2
2015-Mar-24 20:33N 40°39' W 074°05'3 2.6
2015-Mar-24 19:13N 40°39' W 074°10'0 0.0
2015-Mar-24 18:19N 40°39' W 074°10'0 0.0
2015-Mar-24 16:33N 40°39' W 074°10'0 0.0
2015-Mar-24 15:20N 40°39' W 074°10'0 0.0
2015-Mar-24 14:28N 40°39' W 074°10'0 0.0
2015-Mar-24 06:31N 40°39' W 074°10'0 0.0
2015-Mar-24 05:30N 40°39' W 074°10'0 0.0
2015-Mar-24 04:17N 40°39' W 074°10'3 2.7
2015-Mar-24 03:10N 40°36' W 074°12'0 0.2
2015-Mar-24 02:13N 40°36' W 074°12'3 4.3
2015-Mar-24 01:33N 40°38' W 074°10'0 0.0
2015-Mar-24 00:33N 40°38' W 074°10'0 0.0
2015-Mar-23 23:33N 40°38' W 074°10'0 0.0
2015-Mar-23 22:33N 40°38' W 074°10'0 0.0
2015-Mar-23 21:32N 40°38' W 074°10'7 3.3
2015-Mar-23 19:20N 40°32' W 074°15'0 0.3
2015-Mar-23 18:12N 40°33' W 074°15'5 8.2
2015-Mar-23 17:33N 40°38' W 074°12'3 3.4
2015-Mar-23 16:33N 40°39' W 074°08'3 2.6
2015-Mar-23 15:33N 40°39' W 074°05'4 2.8
2015-Mar-23 14:06N 40°38' W 074°10'0 0.0
2015-Mar-23 13:31N 40°38' W 074°10'3 1.5
2015-Mar-23 11:33N 40°39' W 074°06'2 1.6
2015-Mar-23 10:33N 40°39' W 074°04'2 1.8
2015-Mar-23 09:31N 40°39' W 074°07'1 0.9
2015-Mar-23 08:33N 40°39' W 074°05'3 3.2
2015-Mar-23 07:31N 40°39' W 074°10'0 0.0
2015-Mar-23 05:28N 40°39' W 074°10'0 0.0
2015-Mar-23 04:33N 40°39' W 074°10'0 0.0
2015-Mar-23 03:33N 40°39' W 074°10'0 0.0
2015-Mar-23 01:16N 40°39' W 074°10'3 1.5
2015-Mar-22 23:33N 40°37' W 074°12'7 6.9
2015-Mar-22 22:33N 40°39' W 074°04'5 5.1
2015-Mar-22 21:33N 40°42' W 073°58'5 4.8
2015-Mar-22 20:33N 40°39' W 074°03'5 0.8
2015-Mar-22 14:08N 40°39' W 074°10'3 5.6
2015-Mar-22 13:33N 40°39' W 074°06'6 6.4
2015-Mar-22 12:33N 40°42' W 073°58'0 0.3
2015-Mar-22 11:33N 40°43' W 073°59'0 0.0
2015-Mar-22 10:33N 40°43' W 073°59'1 0.9
2015-Mar-22 09:33N 40°42' W 073°60'9 8.6
2015-Mar-22 08:33N 40°39' W 074°10'0 0.0
2015-Mar-22 07:33N 40°39' W 074°10'4 2.8
2015-Mar-22 06:13N 40°35' W 074°12'2 2.1
2015-Mar-22 05:18N 40°33' W 074°13'3 1.5
2015-Mar-22 03:13N 40°37' W 074°12'5 7.4
2015-Mar-22 02:32N 40°39' W 074°06'0 0.3
2015-Mar-22 01:33N 40°39' W 074°07'2 2.2
2015-Mar-22 00:26N 40°39' W 074°10'0 0.0
2015-Mar-21 23:33N 40°39' W 074°10'1 0.7
2015-Mar-21 21:32N 40°38' W 074°12'0 0.0
2015-Mar-21 19:22N 40°38' W 074°12'0 0.0
2015-Mar-21 18:33N 40°38' W 074°12'2 2.3
2015-Mar-21 17:33N 40°39' W 074°09'5 5.2
2015-Mar-21 16:33N 40°40' W 074°02'0 0.3
2015-Mar-21 15:33N 40°40' W 074°02'6 6.2
2015-Mar-21 14:33N 40°39' W 074°10'1 0.0
2015-Mar-20 22:24N 40°38' W 074°10'7 3.3
2015-Mar-20 20:14N 40°33' W 074°15'2 2.0
2015-Mar-20 19:11N 40°34' W 074°13'4 6.3
2015-Mar-20 18:29N 40°38' W 074°12'6 6.3
2015-Mar-20 17:33N 40°39' W 074°04'7 7.4
2015-Mar-20 16:33N 40°45' W 073°58'12 9.5
2015-Mar-20 15:18N 40°52' W 073°45'5 2.7
2015-Mar-20 13:30N 40°50' W 073°39'0 0.0
2015-Mar-20 12:05N 40°50' W 073°39'0 0.0
2015-Mar-20 11:28N 40°50' W 073°39'0 0.0
2015-Mar-20 10:14N 40°50' W 073°39'0 0.0
2015-Mar-20 07:09N 40°50' W 073°39'2 0.7
2015-Mar-20 04:04N 40°52' W 073°40'11 5.5
2015-Mar-20 02:05N 40°48' W 073°54'5 8.8
2015-Mar-20 01:33N 40°45' W 073°58'7 7.2
2015-Mar-20 00:33N 40°39' W 074°04'0 0.0
2015-Mar-19 23:33N 40°39' W 074°04'0 0.0
2015-Mar-19 22:33N 40°39' W 074°04'2 1.8
2015-Mar-19 21:32N 40°39' W 074°07'5 4.4
2015-Mar-19 20:31N 40°38' W 074°12'0 0.0
2015-Mar-19 19:18N 40°38' W 074°12'3 1.6
2015-Mar-19 17:32N 40°39' W 074°09'4 4.0
2015-Mar-19 16:34N 40°39' W 074°04'7 7.4
2015-Mar-19 15:33N 40°44' W 073°57'0 0.1
2015-Mar-19 14:27N 40°44' W 073°57'0 0.0
2015-Mar-19 12:04N 40°44' W 073°57'0 0.0
2015-Mar-19 11:23N 40°44' W 073°57'4 4.6
2015-Mar-19 10:33N 40°42' W 074°00'4 4.3
2015-Mar-19 09:34N 40°39' W 074°05'2 1.6
2015-Mar-19 08:33N 40°39' W 074°07'0 0.2
2015-Mar-19 07:33N 40°39' W 074°07'4 3.2
2015-Mar-19 06:12N 40°37' W 074°12'2 3.9
2015-Mar-19 05:33N 40°39' W 074°10'0 0.0
2015-Mar-19 04:33N 40°39' W 074°10'0 0.0
2015-Mar-19 03:33N 40°39' W 074°10'0 0.0
2015-Mar-19 02:33N 40°39' W 074°10'0 0.0
2015-Mar-19 01:33N 40°39' W 074°10'3 2.9
2015-Mar-19 00:33N 40°39' W 074°06'4 4.4
2015-Mar-18 23:33N 40°40' W 074°00'0 0.0
2015-Mar-18 22:33N 40°40' W 074°00'7 6.6
2015-Mar-18 21:32N 40°38' W 074°09'2 2.5
2015-Mar-18 20:33N 40°39' W 074°06'3 3.0
2015-Mar-18 19:33N 40°38' W 074°10'0 0.0
2015-Mar-18 17:08N 40°39' W 074°10'0 0.2
2015-Mar-18 16:33N 40°38' W 074°10'0 0.0
2015-Mar-18 15:33N 40°38' W 074°10'5 5.2
2015-Mar-18 14:33N 40°39' W 074°03'2 2.5
2015-Mar-18 13:33N 40°41' W 074°01'9 8.6
2015-Mar-18 12:33N 40°48' W 073°55'0 0.1
2015-Mar-18 07:29N 40°48' W 073°54'2 0.7
2015-Mar-18 05:23N 40°47' W 073°55'5 6.5
2015-Mar-18 04:33N 40°42' W 073°59'9 8.4
2015-Mar-18 03:31N 40°38' W 074°10'0 0.1
2015-Mar-18 01:33N 40°38' W 074°10'6 6.0
2015-Mar-18 00:33N 40°41' W 074°02'13 9.8
2015-Mar-17 23:13N 40°53' W 073°56'  
Track history (hours):
 
Tides and Currents Weather Stations Pressure Air Temp Water Temp Dewpoint Dewpoint Depression Visibility Wind Speed Wind Dir Waves Ship Positions

RoSS Sea

Owner: Kirby Inland Marine, LP, Houston, TX. More information available from US FCC via Universal Licensing System and Coast Guard Vessel Documentation Center.

Last reported at 2015-Mar-27 15:33 UTC. Time now 2015-Mar-27 15:41 UTC.
Position N 40°38' W 074°10'.

Length 30 m; draft 5 m.

Type: Tow > 200 m length. MMSI: 367334360.

Date/timePositionNaut miles runAvg speedWind from/ knotsBaromVisibWave heightAir tempDewpointWater temp
2015-Mar-27 15:33N 40°38' W 074°10'0 0.0
2015-Mar-27 14:33N 40°38' W 074°10'3 1.3
2015-Mar-27 12:23N 40°36' W 074°12'3 3.5
2015-Mar-27 11:32N 40°38' W 074°10'0 0.0
2015-Mar-27 10:30N 40°38' W 074°10'0 0.0
2015-Mar-27 09:33N 40°38' W 074°10'0 0.0
2015-Mar-27 08:33N 40°38' W 074°10'0 0.0
2015-Mar-27 07:33N 40°38' W 074°10'0 0.0
2015-Mar-27 06:33N 40°38' W 074°10'0 0.0
2015-Mar-27 05:20N 40°38' W 074°10'0 0.0
2015-Mar-27 04:33N 40°38' W 074°10'1 0.6
2015-Mar-27 03:33N 40°38' W 074°09'1 0.9
2015-Mar-27 02:32N 40°39' W 074°08'2 1.6
2015-Mar-27 01:31N 40°38' W 074°10'2 1.7
2015-Mar-27 00:31N 40°39' W 074°08'1 1.2
2015-Mar-26 23:32N 40°39' W 074°09'1 0.5
2015-Mar-26 22:33N 40°39' W 074°10'1 0.9
2015-Mar-26 21:29N 40°39' W 074°11'10 3.2
2015-Mar-26 18:27N 40°29' W 074°14'3 3.1
2015-Mar-26 17:27N 40°32' W 074°15'0 0.0
2015-Mar-26 16:28N 40°32' W 074°15'0 0.0
2015-Mar-26 14:25N 40°32' W 074°15'0 0.0
2015-Mar-26 11:14N 40°32' W 074°15'0 0.7
2015-Mar-26 10:30N 40°33' W 074°15'2 2.0
2015-Mar-26 09:25N 40°34' W 074°13'5 2.5
2015-Mar-26 07:27N 40°38' W 074°10'0 0.0
2015-Mar-26 06:33N 40°38' W 074°10'0 0.0
2015-Mar-26 05:29N 40°38' W 074°10'0 0.0
2015-Mar-26 04:33N 40°38' W 074°10'0 0.0
2015-Mar-26 03:29N 40°38' W 074°10'0 0.0
2015-Mar-26 02:33N 40°38' W 074°10'0 0.0
2015-Mar-26 01:33N 40°38' W 074°10'0 0.0
2015-Mar-26 00:34N 40°38' W 074°10'0 0.0
2015-Mar-25 23:33N 40°38' W 074°10'0 0.0
2015-Mar-25 22:34N 40°38' W 074°10'0 0.0
2015-Mar-25 21:33N 40°38' W 074°10'0 0.0
2015-Mar-25 20:33N 40°38' W 074°10'0 0.0
2015-Mar-25 19:33N 40°38' W 074°10'0 0.0
2015-Mar-25 18:33N 40°38' W 074°10'0 0.0
2015-Mar-25 17:23N 40°38' W 074°10'0 0.0
2015-Mar-25 15:33N 40°38' W 074°10'0 0.0
2015-Mar-25 14:33N 40°38' W 074°10'0 0.0
2015-Mar-25 13:32N 40°38' W 074°10'7 0.9
2015-Mar-25 05:12N 40°32' W 074°15'1 0.8
2015-Mar-25 03:24N 40°33' W 074°14'6 7.0
2015-Mar-25 02:33N 40°39' W 074°10'1 0.3
2015-Mar-24 22:33N 40°39' W 074°08'2 2.5
2015-Mar-24 21:33N 40°39' W 074°05'0 0.2
2015-Mar-24 20:33N 40°39' W 074°05'3 2.6
2015-Mar-24 19:13N 40°39' W 074°10'0 0.0
2015-Mar-24 18:19N 40°39' W 074°10'0 0.0
2015-Mar-24 16:33N 40°39' W 074°10'0 0.0
2015-Mar-24 15:20N 40°39' W 074°10'0 0.0
2015-Mar-24 14:28N 40°39' W 074°10'0 0.0
2015-Mar-24 06:31N 40°39' W 074°10'0 0.0
2015-Mar-24 05:30N 40°39' W 074°10'0 0.0
2015-Mar-24 04:17N 40°39' W 074°10'3 2.7
2015-Mar-24 03:10N 40°36' W 074°12'0 0.2
2015-Mar-24 02:13N 40°36' W 074°12'3 4.3
2015-Mar-24 01:33N 40°38' W 074°10'0 0.0
2015-Mar-24 00:33N 40°38' W 074°10'0 0.0
2015-Mar-23 23:33N 40°38' W 074°10'0 0.0
2015-Mar-23 22:33N 40°38' W 074°10'0 0.0
2015-Mar-23 21:32N 40°38' W 074°10'7 3.3
2015-Mar-23 19:20N 40°32' W 074°15'0 0.3
2015-Mar-23 18:12N 40°33' W 074°15'5 8.2
2015-Mar-23 17:33N 40°38' W 074°12'3 3.4
2015-Mar-23 16:33N 40°39' W 074°08'3 2.6
2015-Mar-23 15:33N 40°39' W 074°05'4 2.8
2015-Mar-23 14:06N 40°38' W 074°10'0 0.0
2015-Mar-23 13:31N 40°38' W 074°10'3 1.5
2015-Mar-23 11:33N 40°39' W 074°06'2 1.6
2015-Mar-23 10:33N 40°39' W 074°04'2 1.8
2015-Mar-23 09:31N 40°39' W 074°07'1 0.9
2015-Mar-23 08:33N 40°39' W 074°05'3 3.2
2015-Mar-23 07:31N 40°39' W 074°10'0 0.0
2015-Mar-23 05:28N 40°39' W 074°10'0 0.0
2015-Mar-23 04:33N 40°39' W 074°10'0 0.0
2015-Mar-23 03:33N 40°39' W 074°10'0 0.0
2015-Mar-23 01:16N 40°39' W 074°10'3 1.5
2015-Mar-22 23:33N 40°37' W 074°12'7 6.9
2015-Mar-22 22:33N 40°39' W 074°04'5 5.1
2015-Mar-22 21:33N 40°42' W 073°58'5 4.8
2015-Mar-22 20:33N 40°39' W 074°03'5 0.8
2015-Mar-22 14:08N 40°39' W 074°10'3 5.6
2015-Mar-22 13:33N 40°39' W 074°06'6 6.4
2015-Mar-22 12:33N 40°42' W 073°58'0 0.3
2015-Mar-22 11:33N 40°43' W 073°59'0 0.0
2015-Mar-22 10:33N 40°43' W 073°59'1 0.9
2015-Mar-22 09:33N 40°42' W 073°60'9 8.6
2015-Mar-22 08:33N 40°39' W 074°10'0 0.0
2015-Mar-22 07:33N 40°39' W 074°10'4 2.8
2015-Mar-22 06:13N 40°35' W 074°12'2 2.1
2015-Mar-22 05:18N 40°33' W 074°13'3 1.5
2015-Mar-22 03:13N 40°37' W 074°12'5 7.4
2015-Mar-22 02:32N 40°39' W 074°06'0 0.3
2015-Mar-22 01:33N 40°39' W 074°07'2 2.2
2015-Mar-22 00:26N 40°39' W 074°10'0 0.0
2015-Mar-21 23:33N 40°39' W 074°10'1 0.7
2015-Mar-21 21:32N 40°38' W 074°12'0 0.0
2015-Mar-21 19:22N 40°38' W 074°12'0 0.0
2015-Mar-21 18:33N 40°38' W 074°12'2 2.3
2015-Mar-21 17:33N 40°39' W 074°09'5 5.2
2015-Mar-21 16:33N 40°40' W 074°02'0 0.3
2015-Mar-21 15:33N 40°40' W 074°02'6 6.2
2015-Mar-21 14:33N 40°39' W 074°10'1 0.0
2015-Mar-20 22:24N 40°38' W 074°10'7 3.3
2015-Mar-20 20:14N 40°33' W 074°15'2 2.0
2015-Mar-20 19:11N 40°34' W 074°13'4 6.3
2015-Mar-20 18:29N 40°38' W 074°12'6 6.3
2015-Mar-20 17:33N 40°39' W 074°04'7 7.4
2015-Mar-20 16:33N 40°45' W 073°58'12 9.5
2015-Mar-20 15:18N 40°52' W 073°45'5 2.7
2015-Mar-20 13:30N 40°50' W 073°39'0 0.0
2015-Mar-20 12:05N 40°50' W 073°39'0 0.0
2015-Mar-20 11:28N 40°50' W 073°39'0 0.0
2015-Mar-20 10:14N 40°50' W 073°39'0 0.0
2015-Mar-20 07:09N 40°50' W 073°39'2 0.7
2015-Mar-20 04:04N 40°52' W 073°40'11 5.5
2015-Mar-20 02:05N 40°48' W 073°54'5 8.8
2015-Mar-20 01:33N 40°45' W 073°58'7 7.2
2015-Mar-20 00:33N 40°39' W 074°04'0 0.0
2015-Mar-19 23:33N 40°39' W 074°04'0 0.0
2015-Mar-19 22:33N 40°39' W 074°04'2 1.8
2015-Mar-19 21:32N 40°39' W 074°07'5 4.4
2015-Mar-19 20:31N 40°38' W 074°12'0 0.0
2015-Mar-19 19:18N 40°38' W 074°12'3 1.6
2015-Mar-19 17:32N 40°39' W 074°09'4 4.0
2015-Mar-19 16:34N 40°39' W 074°04'7 7.4
2015-Mar-19 15:33N 40°44' W 073°57'0 0.1
2015-Mar-19 14:27N 40°44' W 073°57'0 0.0
2015-Mar-19 12:04N 40°44' W 073°57'0 0.0
2015-Mar-19 11:23N 40°44' W 073°57'4 4.6
2015-Mar-19 10:33N 40°42' W 074°00'4 4.3
2015-Mar-19 09:34N 40°39' W 074°05'2 1.6
2015-Mar-19 08:33N 40°39' W 074°07'0 0.2
2015-Mar-19 07:33N 40°39' W 074°07'4 3.2
2015-Mar-19 06:12N 40°37' W 074°12'2 3.9
2015-Mar-19 05:33N 40°39' W 074°10'0 0.0
2015-Mar-19 04:33N 40°39' W 074°10'0 0.0
2015-Mar-19 03:33N 40°39' W 074°10'0 0.0
2015-Mar-19 02:33N 40°39' W 074°10'0 0.0
2015-Mar-19 01:33N 40°39' W 074°10'3 2.9
2015-Mar-19 00:33N 40°39' W 074°06'4 4.4
2015-Mar-18 23:33N 40°40' W 074°00'0 0.0
2015-Mar-18 22:33N 40°40' W 074°00'7 6.6
2015-Mar-18 21:32N 40°38' W 074°09'2 2.5
2015-Mar-18 20:33N 40°39' W 074°06'3 3.0
2015-Mar-18 19:33N 40°38' W 074°10'0 0.0
2015-Mar-18 17:08N 40°39' W 074°10'0 0.2
2015-Mar-18 16:33N 40°38' W 074°10'0 0.0
2015-Mar-18 15:33N 40°38' W 074°10'5 5.2
2015-Mar-18 14:33N 40°39' W 074°03'2 2.5
2015-Mar-18 13:33N 40°41' W 074°01'9 8.6
2015-Mar-18 12:33N 40°48' W 073°55'0 0.1
2015-Mar-18 07:29N 40°48' W 073°54'2 0.7
2015-Mar-18 05:23N 40°47' W 073°55'5 6.5
2015-Mar-18 04:33N 40°42' W 073°59'9 8.4
2015-Mar-18 03:31N 40°38' W 074°10'0 0.1
2015-Mar-18 01:33N 40°38' W 074°10'6 6.0
2015-Mar-18 00:33N 40°41' W 074°02'13 9.8
2015-Mar-17 23:13N 40°53' W 073°56'  

Dump ship's entire track history